sensor_id;sensor_type;location;lat;lon;timestamp;P1;durP1;ratioP1;P2;durP2;ratioP2
46491;SDS011;32206;51.446;6.792;2022-07-23T00:01:29;11.40;;;4.00;;
46491;SDS011;32206;51.446;6.792;2022-07-23T00:03:55;7.55;;;3.63;;
46491;SDS011;32206;51.446;6.792;2022-07-23T00:06:21;7.47;;;3.60;;
46491;SDS011;32206;51.446;6.792;2022-07-23T00:08:48;7.78;;;3.42;;
46491;SDS011;32206;51.446;6.792;2022-07-23T00:11:14;6.80;;;3.85;;
46491;SDS011;32206;51.446;6.792;2022-07-23T00:13:40;9.02;;;4.03;;
46491;SDS011;32206;51.446;6.792;2022-07-23T00:16:06;12.30;;;3.88;;
46491;SDS011;32206;51.446;6.792;2022-07-23T00:18:34;6.88;;;3.53;;
46491;SDS011;32206;51.446;6.792;2022-07-23T00:21:00;7.18;;;4.20;;
46491;SDS011;32206;51.446;6.792;2022-07-23T00:23:26;10.23;;;3.75;;
46491;SDS011;32206;51.446;6.792;2022-07-23T00:25:53;8.98;;;4.15;;
46491;SDS011;32206;51.446;6.792;2022-07-23T00:28:20;5.00;;;4.00;;
46491;SDS011;32206;51.446;6.792;2022-07-23T00:30:45;7.97;;;4.35;;
46491;SDS011;32206;51.446;6.792;2022-07-23T00:33:11;6.07;;;4.20;;
46491;SDS011;32206;51.446;6.792;2022-07-23T00:35:39;10.45;;;4.03;;
46491;SDS011;32206;51.446;6.792;2022-07-23T00:38:06;5.40;;;4.35;;
46491;SDS011;32206;51.446;6.792;2022-07-23T00:40:33;8.50;;;4.47;;
46491;SDS011;32206;51.446;6.792;2022-07-23T00:42:59;9.63;;;4.10;;
46491;SDS011;32206;51.446;6.792;2022-07-23T00:45:25;11.00;;;4.93;;
46491;SDS011;32206;51.446;6.792;2022-07-23T00:47:51;5.75;;;3.65;;
46491;SDS011;32206;51.446;6.792;2022-07-23T00:50:17;8.93;;;3.95;;
46491;SDS011;32206;51.446;6.792;2022-07-23T00:52:43;10.68;;;4.03;;
46491;SDS011;32206;51.446;6.792;2022-07-23T00:55:09;6.60;;;4.90;;
46491;SDS011;32206;51.446;6.792;2022-07-23T00:57:36;12.05;;;4.70;;
46491;SDS011;32206;51.446;6.792;2022-07-23T01:00:06;9.70;;;4.13;;
46491;SDS011;32206;51.446;6.792;2022-07-23T01:02:34;6.32;;;4.15;;
46491;SDS011;32206;51.446;6.792;2022-07-23T01:05:00;4.85;;;4.22;;
46491;SDS011;32206;51.446;6.792;2022-07-23T01:07:26;10.55;;;5.10;;
46491;SDS011;32206;51.446;6.792;2022-07-23T01:09:53;8.68;;;4.20;;
46491;SDS011;32206;51.446;6.792;2022-07-23T01:12:19;7.00;;;4.53;;
46491;SDS011;32206;51.446;6.792;2022-07-23T01:14:53;11.18;;;4.15;;
46491;SDS011;32206;51.446;6.792;2022-07-23T01:17:23;5.40;;;4.25;;
46491;SDS011;32206;51.446;6.792;2022-07-23T01:19:48;7.65;;;4.75;;
46491;SDS011;32206;51.446;6.792;2022-07-23T01:22:14;8.40;;;4.50;;
46491;SDS011;32206;51.446;6.792;2022-07-23T01:24:42;8.35;;;4.32;;
46491;SDS011;32206;51.446;6.792;2022-07-23T01:27:08;6.05;;;4.30;;
46491;SDS011;32206;51.446;6.792;2022-07-23T01:29:33;4.93;;;4.13;;
46491;SDS011;32206;51.446;6.792;2022-07-23T01:31:59;9.13;;;4.15;;
46491;SDS011;32206;51.446;6.792;2022-07-23T01:34:25;4.75;;;4.25;;
46491;SDS011;32206;51.446;6.792;2022-07-23T01:36:50;7.22;;;4.22;;
46491;SDS011;32206;51.446;6.792;2022-07-23T01:39:16;7.35;;;4.13;;
46491;SDS011;32206;51.446;6.792;2022-07-23T01:41:42;10.02;;;4.57;;
46491;SDS011;32206;51.446;6.792;2022-07-23T01:44:07;5.55;;;4.45;;
46491;SDS011;32206;51.446;6.792;2022-07-23T01:46:33;6.03;;;4.90;;
46491;SDS011;32206;51.446;6.792;2022-07-23T01:48:59;7.03;;;4.35;;
46491;SDS011;32206;51.446;6.792;2022-07-23T01:51:24;7.75;;;4.72;;
46491;SDS011;32206;51.446;6.792;2022-07-23T01:53:50;7.30;;;4.93;;
46491;SDS011;32206;51.446;6.792;2022-07-23T01:56:16;4.97;;;4.15;;
46491;SDS011;32206;51.446;6.792;2022-07-23T01:58:41;4.97;;;4.35;;
46491;SDS011;32206;51.446;6.792;2022-07-23T02:01:07;8.55;;;4.65;;
46491;SDS011;32206;51.446;6.792;2022-07-23T02:03:33;5.47;;;4.35;;
46491;SDS011;32206;51.446;6.792;2022-07-23T02:05:58;10.38;;;4.85;;
46491;SDS011;32206;51.446;6.792;2022-07-23T02:08:24;7.82;;;4.70;;
46491;SDS011;32206;51.446;6.792;2022-07-23T02:10:49;8.77;;;4.60;;
46491;SDS011;32206;51.446;6.792;2022-07-23T02:13:16;7.10;;;4.40;;
46491;SDS011;32206;51.446;6.792;2022-07-23T02:15:42;5.30;;;4.80;;
46491;SDS011;32206;51.446;6.792;2022-07-23T02:18:08;6.00;;;4.50;;
46491;SDS011;32206;51.446;6.792;2022-07-23T02:20:34;7.07;;;4.88;;
46491;SDS011;32206;51.446;6.792;2022-07-23T02:22:59;6.95;;;4.63;;
46491;SDS011;32206;51.446;6.792;2022-07-23T02:25:25;8.98;;;4.80;;
46491;SDS011;32206;51.446;6.792;2022-07-23T02:27:51;9.00;;;5.43;;
46491;SDS011;32206;51.446;6.792;2022-07-23T02:30:16;7.43;;;4.80;;
46491;SDS011;32206;51.446;6.792;2022-07-23T02:32:42;6.03;;;4.82;;
46491;SDS011;32206;51.446;6.792;2022-07-23T02:35:08;10.00;;;5.10;;
46491;SDS011;32206;51.446;6.792;2022-07-23T02:37:33;11.25;;;4.35;;
46491;SDS011;32206;51.446;6.792;2022-07-23T02:39:59;5.25;;;4.75;;
46491;SDS011;32206;51.446;6.792;2022-07-23T02:42:25;8.02;;;5.35;;
46491;SDS011;32206;51.446;6.792;2022-07-23T02:44:51;11.43;;;4.88;;
46491;SDS011;32206;51.446;6.792;2022-07-23T02:47:17;8.07;;;4.50;;
46491;SDS011;32206;51.446;6.792;2022-07-23T02:49:42;8.55;;;4.50;;
46491;SDS011;32206;51.446;6.792;2022-07-23T02:52:08;12.70;;;5.55;;
46491;SDS011;32206;51.446;6.792;2022-07-23T02:54:35;6.63;;;4.60;;
46491;SDS011;32206;51.446;6.792;2022-07-23T02:57:02;8.73;;;4.55;;
46491;SDS011;32206;51.446;6.792;2022-07-23T02:59:28;4.95;;;4.53;;
46491;SDS011;32206;51.446;6.792;2022-07-23T03:01:54;6.18;;;4.90;;
46491;SDS011;32206;51.446;6.792;2022-07-23T03:04:19;8.32;;;5.20;;
46491;SDS011;32206;51.446;6.792;2022-07-23T03:06:45;5.78;;;4.68;;
46491;SDS011;32206;51.446;6.792;2022-07-23T03:09:11;7.05;;;4.90;;
46491;SDS011;32206;51.446;6.792;2022-07-23T03:11:36;9.50;;;5.68;;
46491;SDS011;32206;51.446;6.792;2022-07-23T03:14:02;6.93;;;5.10;;
46491;SDS011;32206;51.446;6.792;2022-07-23T03:16:28;6.40;;;5.10;;
46491;SDS011;32206;51.446;6.792;2022-07-23T03:18:53;6.55;;;4.93;;
46491;SDS011;32206;51.446;6.792;2022-07-23T03:21:19;5.50;;;5.00;;
46491;SDS011;32206;51.446;6.792;2022-07-23T03:23:44;5.30;;;4.80;;
46491;SDS011;32206;51.446;6.792;2022-07-23T03:26:10;8.60;;;5.57;;
46491;SDS011;32206;51.446;6.792;2022-07-23T03:28:36;8.20;;;5.22;;
46491;SDS011;32206;51.446;6.792;2022-07-23T03:31:01;5.95;;;5.03;;
46491;SDS011;32206;51.446;6.792;2022-07-23T03:33:27;7.05;;;5.25;;
46491;SDS011;32206;51.446;6.792;2022-07-23T03:35:53;5.90;;;5.10;;
46491;SDS011;32206;51.446;6.792;2022-07-23T03:38:18;6.78;;;5.47;;
46491;SDS011;32206;51.446;6.792;2022-07-23T03:40:44;7.80;;;5.60;;
46491;SDS011;32206;51.446;6.792;2022-07-23T03:43:09;7.68;;;5.78;;
46491;SDS011;32206;51.446;6.792;2022-07-23T03:45:35;7.78;;;5.55;;
46491;SDS011;32206;51.446;6.792;2022-07-23T03:48:01;7.03;;;5.20;;
46491;SDS011;32206;51.446;6.792;2022-07-23T03:50:26;6.70;;;5.53;;
46491;SDS011;32206;51.446;6.792;2022-07-23T03:52:52;9.32;;;5.50;;
46491;SDS011;32206;51.446;6.792;2022-07-23T03:55:19;8.77;;;5.95;;
46491;SDS011;32206;51.446;6.792;2022-07-23T03:57:44;6.68;;;5.32;;
46491;SDS011;32206;51.446;6.792;2022-07-23T04:00:10;7.10;;;5.35;;
46491;SDS011;32206;51.446;6.792;2022-07-23T04:02:38;6.95;;;5.47;;
46491;SDS011;32206;51.446;6.792;2022-07-23T04:05:04;7.82;;;5.85;;
46491;SDS011;32206;51.446;6.792;2022-07-23T04:07:30;6.65;;;5.40;;
46491;SDS011;32206;51.446;6.792;2022-07-23T04:09:56;8.60;;;5.50;;
46491;SDS011;32206;51.446;6.792;2022-07-23T04:12:21;6.25;;;5.65;;
46491;SDS011;32206;51.446;6.792;2022-07-23T04:14:47;7.65;;;5.55;;
46491;SDS011;32206;51.446;6.792;2022-07-23T04:17:13;5.57;;;5.07;;
46491;SDS011;32206;51.446;6.792;2022-07-23T04:19:39;7.57;;;5.72;;
46491;SDS011;32206;51.446;6.792;2022-07-23T04:22:07;6.72;;;5.13;;
46491;SDS011;32206;51.446;6.792;2022-07-23T04:24:32;6.20;;;5.70;;
46491;SDS011;32206;51.446;6.792;2022-07-23T04:26:58;8.48;;;6.55;;
46491;SDS011;32206;51.446;6.792;2022-07-23T04:29:24;9.40;;;6.53;;
46491;SDS011;32206;51.446;6.792;2022-07-23T04:31:50;19.63;;;12.52;;
46491;SDS011;32206;51.446;6.792;2022-07-23T04:34:16;9.70;;;6.43;;
46491;SDS011;32206;51.446;6.792;2022-07-23T04:36:41;9.18;;;6.22;;
46491;SDS011;32206;51.446;6.792;2022-07-23T04:39:07;8.27;;;5.25;;
46491;SDS011;32206;51.446;6.792;2022-07-23T04:41:32;9.13;;;5.30;;
46491;SDS011;32206;51.446;6.792;2022-07-23T04:43:59;5.85;;;5.32;;
46491;SDS011;32206;51.446;6.792;2022-07-23T04:46:25;7.22;;;5.53;;
46491;SDS011;32206;51.446;6.792;2022-07-23T04:48:51;7.32;;;5.47;;
46491;SDS011;32206;51.446;6.792;2022-07-23T04:51:16;12.18;;;7.38;;
46491;SDS011;32206;51.446;6.792;2022-07-23T04:53:42;6.47;;;5.88;;
46491;SDS011;32206;51.446;6.792;2022-07-23T04:56:08;9.73;;;6.03;;
46491;SDS011;32206;51.446;6.792;2022-07-23T04:58:33;7.72;;;5.50;;
46491;SDS011;32206;51.446;6.792;2022-07-23T05:00:59;7.00;;;5.57;;
46491;SDS011;32206;51.446;6.792;2022-07-23T05:03:25;8.95;;;6.60;;
46491;SDS011;32206;51.446;6.792;2022-07-23T05:05:51;9.55;;;5.43;;
46491;SDS011;32206;51.446;6.792;2022-07-23T05:08:16;6.30;;;5.72;;
46491;SDS011;32206;51.446;6.792;2022-07-23T05:10:42;11.90;;;8.38;;
46491;SDS011;32206;51.446;6.792;2022-07-23T05:13:08;17.20;;;11.77;;
46491;SDS011;32206;51.446;6.792;2022-07-23T05:15:33;16.67;;;9.25;;
46491;SDS011;32206;51.446;6.792;2022-07-23T05:17:59;7.68;;;6.10;;
46491;SDS011;32206;51.446;6.792;2022-07-23T05:20:24;7.97;;;6.47;;
46491;SDS011;32206;51.446;6.792;2022-07-23T05:22:51;7.05;;;6.40;;
46491;SDS011;32206;51.446;6.792;2022-07-23T05:25:16;11.02;;;5.93;;
46491;SDS011;32206;51.446;6.792;2022-07-23T05:27:42;9.80;;;6.43;;
46491;SDS011;32206;51.446;6.792;2022-07-23T05:30:08;9.00;;;5.75;;
46491;SDS011;32206;51.446;6.792;2022-07-23T05:32:34;7.47;;;5.90;;
46491;SDS011;32206;51.446;6.792;2022-07-23T05:35:01;10.50;;;5.88;;
46491;SDS011;32206;51.446;6.792;2022-07-23T05:37:28;11.30;;;6.25;;
46491;SDS011;32206;51.446;6.792;2022-07-23T05:39:53;6.85;;;6.20;;
46491;SDS011;32206;51.446;6.792;2022-07-23T05:42:19;9.20;;;7.03;;
46491;SDS011;32206;51.446;6.792;2022-07-23T05:44:45;9.60;;;7.00;;
46491;SDS011;32206;51.446;6.792;2022-07-23T05:47:10;7.50;;;6.60;;
46491;SDS011;32206;51.446;6.792;2022-07-23T05:49:37;9.40;;;6.43;;
46491;SDS011;32206;51.446;6.792;2022-07-23T05:52:04;7.72;;;6.32;;
46491;SDS011;32206;51.446;6.792;2022-07-23T05:54:31;11.73;;;7.82;;
46491;SDS011;32206;51.446;6.792;2022-07-23T05:57:00;22.98;;;12.48;;
46491;SDS011;32206;51.446;6.792;2022-07-23T05:59:26;11.50;;;9.30;;
46491;SDS011;32206;51.446;6.792;2022-07-23T06:01:51;12.82;;;7.68;;
46491;SDS011;32206;51.446;6.792;2022-07-23T06:04:17;10.07;;;7.50;;
46491;SDS011;32206;51.446;6.792;2022-07-23T06:06:42;14.05;;;7.70;;
46491;SDS011;32206;51.446;6.792;2022-07-23T06:09:08;9.68;;;6.95;;
46491;SDS011;32206;51.446;6.792;2022-07-23T06:11:35;10.35;;;7.47;;
46491;SDS011;32206;51.446;6.792;2022-07-23T06:14:01;10.88;;;6.22;;
46491;SDS011;32206;51.446;6.792;2022-07-23T06:16:27;11.75;;;7.07;;
46491;SDS011;32206;51.446;6.792;2022-07-23T06:18:53;9.90;;;7.65;;
46491;SDS011;32206;51.446;6.792;2022-07-23T06:21:19;8.88;;;7.88;;
46491;SDS011;32206;51.446;6.792;2022-07-23T06:23:44;9.98;;;8.18;;
46491;SDS011;32206;51.446;6.792;2022-07-23T06:26:10;11.05;;;8.27;;
46491;SDS011;32206;51.446;6.792;2022-07-23T06:28:35;10.35;;;8.75;;
46491;SDS011;32206;51.446;6.792;2022-07-23T06:31:01;12.05;;;9.30;;
46491;SDS011;32206;51.446;6.792;2022-07-23T06:33:27;13.68;;;8.50;;
46491;SDS011;32206;51.446;6.792;2022-07-23T06:35:52;10.65;;;8.05;;
46491;SDS011;32206;51.446;6.792;2022-07-23T06:38:18;15.13;;;8.98;;
46491;SDS011;32206;51.446;6.792;2022-07-23T06:40:44;16.92;;;9.35;;
46491;SDS011;32206;51.446;6.792;2022-07-23T06:43:10;14.93;;;9.50;;
46491;SDS011;32206;51.446;6.792;2022-07-23T06:45:35;13.55;;;9.30;;
46491;SDS011;32206;51.446;6.792;2022-07-23T06:48:01;15.23;;;11.38;;
46491;SDS011;32206;51.446;6.792;2022-07-23T06:50:28;15.68;;;10.93;;
46491;SDS011;32206;51.446;6.792;2022-07-23T06:52:54;16.10;;;10.68;;
46491;SDS011;32206;51.446;6.792;2022-07-23T06:55:19;18.50;;;11.05;;
46491;SDS011;32206;51.446;6.792;2022-07-23T06:57:45;15.05;;;11.23;;
46491;SDS011;32206;51.446;6.792;2022-07-23T07:00:11;17.85;;;11.65;;
46491;SDS011;32206;51.446;6.792;2022-07-23T07:02:37;10.45;;;8.60;;
46491;SDS011;32206;51.446;6.792;2022-07-23T07:05:02;11.60;;;7.45;;
46491;SDS011;32206;51.446;6.792;2022-07-23T07:07:28;9.70;;;8.38;;
46491;SDS011;32206;51.446;6.792;2022-07-23T07:09:54;11.60;;;7.53;;
46491;SDS011;32206;51.446;6.792;2022-07-23T07:12:19;10.88;;;7.55;;
46491;SDS011;32206;51.446;6.792;2022-07-23T07:14:45;10.20;;;6.55;;
46491;SDS011;32206;51.446;6.792;2022-07-23T07:17:11;10.55;;;6.80;;
46491;SDS011;32206;51.446;6.792;2022-07-23T07:19:36;10.23;;;6.53;;
46491;SDS011;32206;51.446;6.792;2022-07-23T07:22:02;6.95;;;6.10;;
46491;SDS011;32206;51.446;6.792;2022-07-23T07:24:28;7.55;;;5.50;;
46491;SDS011;32206;51.446;6.792;2022-07-23T07:26:53;10.25;;;5.47;;
46491;SDS011;32206;51.446;6.792;2022-07-23T07:29:19;15.45;;;8.38;;
46491;SDS011;32206;51.446;6.792;2022-07-23T07:31:45;7.70;;;5.95;;
46491;SDS011;32206;51.446;6.792;2022-07-23T07:34:10;8.63;;;6.30;;
46491;SDS011;32206;51.446;6.792;2022-07-23T07:36:36;7.57;;;5.45;;
46491;SDS011;32206;51.446;6.792;2022-07-23T07:39:02;12.07;;;6.30;;
46491;SDS011;32206;51.446;6.792;2022-07-23T07:41:30;12.73;;;5.38;;
46491;SDS011;32206;51.446;6.792;2022-07-23T07:43:56;10.80;;;6.30;;
46491;SDS011;32206;51.446;6.792;2022-07-23T07:46:21;11.23;;;6.32;;
46491;SDS011;32206;51.446;6.792;2022-07-23T07:48:49;7.05;;;6.05;;
46491;SDS011;32206;51.446;6.792;2022-07-23T07:51:15;7.05;;;6.28;;
46491;SDS011;32206;51.446;6.792;2022-07-23T07:53:41;12.05;;;6.95;;
46491;SDS011;32206;51.446;6.792;2022-07-23T07:56:06;11.60;;;6.20;;
46491;SDS011;32206;51.446;6.792;2022-07-23T07:58:32;10.13;;;5.93;;
46491;SDS011;32206;51.446;6.792;2022-07-23T08:00:58;7.15;;;5.80;;
46491;SDS011;32206;51.446;6.792;2022-07-23T08:03:24;8.00;;;5.32;;
46491;SDS011;32206;51.446;6.792;2022-07-23T08:05:49;7.18;;;4.97;;
46491;SDS011;32206;51.446;6.792;2022-07-23T08:08:15;8.50;;;4.95;;
46491;SDS011;32206;51.446;6.792;2022-07-23T08:10:41;8.27;;;4.20;;
46491;SDS011;32206;51.446;6.792;2022-07-23T08:13:07;9.93;;;3.85;;
46491;SDS011;32206;51.446;6.792;2022-07-23T08:15:32;6.72;;;3.83;;
46491;SDS011;32206;51.446;6.792;2022-07-23T08:17:58;7.05;;;4.50;;
46491;SDS011;32206;51.446;6.792;2022-07-23T08:20:24;7.80;;;3.83;;
46491;SDS011;32206;51.446;6.792;2022-07-23T08:22:58;5.78;;;3.53;;
46491;SDS011;32206;51.446;6.792;2022-07-23T08:25:34;12.27;;;3.80;;
46491;SDS011;32206;51.446;6.792;2022-07-23T08:28:03;6.63;;;3.17;;
46491;SDS011;32206;51.446;6.792;2022-07-23T08:30:31;12.95;;;3.72;;
46491;SDS011;32206;51.446;6.792;2022-07-23T08:33:01;6.60;;;3.47;;
46491;SDS011;32206;51.446;6.792;2022-07-23T08:35:41;10.60;;;3.80;;
46491;SDS011;32206;51.446;6.792;2022-07-23T08:38:12;12.93;;;4.38;;
46491;SDS011;32206;51.446;6.792;2022-07-23T08:40:41;7.50;;;3.72;;
46491;SDS011;32206;51.446;6.792;2022-07-23T08:43:13;7.95;;;3.92;;
46491;SDS011;32206;51.446;6.792;2022-07-23T08:45:44;6.82;;;3.53;;
46491;SDS011;32206;51.446;6.792;2022-07-23T08:48:15;10.15;;;4.47;;
46491;SDS011;32206;51.446;6.792;2022-07-23T08:50:43;13.68;;;4.72;;
46491;SDS011;32206;51.446;6.792;2022-07-23T08:53:12;6.28;;;3.97;;
46491;SDS011;32206;51.446;6.792;2022-07-23T08:55:39;8.05;;;5.00;;
46491;SDS011;32206;51.446;6.792;2022-07-23T08:58:08;10.88;;;5.05;;
46491;SDS011;32206;51.446;6.792;2022-07-23T09:00:33;6.88;;;4.65;;
46491;SDS011;32206;51.446;6.792;2022-07-23T09:02:59;10.88;;;4.93;;
46491;SDS011;32206;51.446;6.792;2022-07-23T09:05:25;7.95;;;4.43;;
46491;SDS011;32206;51.446;6.792;2022-07-23T09:08:07;8.80;;;5.22;;
46491;SDS011;32206;51.446;6.792;2022-07-23T09:23:47;6.20;;;3.25;;
46491;SDS011;32206;51.446;6.792;2022-07-23T09:26:26;9.77;;;3.78;;
46491;SDS011;32206;51.446;6.792;2022-07-23T09:28:59;5.63;;;3.03;;
46491;SDS011;32206;51.446;6.792;2022-07-23T09:31:31;6.45;;;3.05;;
46491;SDS011;32206;51.446;6.792;2022-07-23T09:36:45;20.58;;;4.05;;
46491;SDS011;32206;51.446;6.792;2022-07-23T09:39:12;8.23;;;3.75;;
46491;SDS011;32206;51.446;6.792;2022-07-23T09:41:41;6.88;;;2.92;;
46491;SDS011;32206;51.446;6.792;2022-07-23T09:44:12;6.20;;;3.63;;
46491;SDS011;32206;51.446;6.792;2022-07-23T09:46:43;8.73;;;3.17;;
46491;SDS011;32206;51.446;6.792;2022-07-23T09:49:11;8.07;;;2.95;;
46491;SDS011;32206;51.446;6.792;2022-07-23T09:51:44;7.50;;;2.80;;
46491;SDS011;32206;51.446;6.792;2022-07-23T09:54:21;5.53;;;2.03;;
46491;SDS011;32206;51.446;6.792;2022-07-23T09:56:47;5.00;;;2.55;;
46491;SDS011;32206;51.446;6.792;2022-07-23T09:59:14;6.65;;;2.67;;
46491;SDS011;32206;51.446;6.792;2022-07-23T10:01:43;5.50;;;2.80;;
46491;SDS011;32206;51.446;6.792;2022-07-23T10:04:10;5.68;;;2.88;;
46491;SDS011;32206;51.446;6.792;2022-07-23T10:06:36;8.02;;;2.45;;
46491;SDS011;32206;51.446;6.792;2022-07-23T10:09:04;9.10;;;2.90;;
46491;SDS011;32206;51.446;6.792;2022-07-23T10:11:30;6.15;;;2.80;;
46491;SDS011;32206;51.446;6.792;2022-07-23T10:13:58;3.58;;;1.90;;
46491;SDS011;32206;51.446;6.792;2022-07-23T10:16:25;6.47;;;2.00;;
46491;SDS011;32206;51.446;6.792;2022-07-23T10:18:51;7.90;;;2.55;;
46491;SDS011;32206;51.446;6.792;2022-07-23T10:27:08;4.80;;;2.00;;
46491;SDS011;32206;51.446;6.792;2022-07-23T10:29:52;6.40;;;2.25;;
46491;SDS011;32206;51.446;6.792;2022-07-23T10:38:11;4.53;;;2.20;;
46491;SDS011;32206;51.446;6.792;2022-07-23T10:40:57;7.03;;;2.13;;
46491;SDS011;32206;51.446;6.792;2022-07-23T10:43:26;6.15;;;2.13;;
46491;SDS011;32206;51.446;6.792;2022-07-23T10:45:52;5.97;;;1.88;;
46491;SDS011;32206;51.446;6.792;2022-07-23T10:51:06;3.85;;;1.83;;
46491;SDS011;32206;51.446;6.792;2022-07-23T10:59:15;5.90;;;2.00;;
46491;SDS011;32206;51.446;6.792;2022-07-23T11:01:40;4.63;;;1.75;;
46491;SDS011;32206;51.446;6.792;2022-07-23T11:04:06;4.72;;;1.55;;
46491;SDS011;32206;51.446;6.792;2022-07-23T11:09:30;2.85;;;1.70;;
46491;SDS011;32206;51.446;6.792;2022-07-23T11:17:22;5.13;;;2.20;;
46491;SDS011;32206;51.446;6.792;2022-07-23T11:22:35;5.30;;;1.90;;
46491;SDS011;32206;51.446;6.792;2022-07-23T11:25:01;3.30;;;1.55;;
46491;SDS011;32206;51.446;6.792;2022-07-23T11:30:02;4.35;;;1.45;;
46491;SDS011;32206;51.446;6.792;2022-07-23T11:32:30;2.55;;;1.40;;
46491;SDS011;32206;51.446;6.792;2022-07-23T11:34:58;4.72;;;1.65;;
46491;SDS011;32206;51.446;6.792;2022-07-23T11:37:38;1.27;;;1.10;;
46491;SDS011;32206;51.446;6.792;2022-07-23T11:40:08;4.97;;;1.33;;
46491;SDS011;32206;51.446;6.792;2022-07-23T11:42:37;6.68;;;1.40;;
46491;SDS011;32206;51.446;6.792;2022-07-23T11:45:20;4.72;;;1.27;;
46491;SDS011;32206;51.446;6.792;2022-07-23T11:47:46;4.30;;;2.47;;
46491;SDS011;32206;51.446;6.792;2022-07-23T11:50:12;6.63;;;3.17;;
46491;SDS011;32206;51.446;6.792;2022-07-23T11:52:38;7.30;;;3.75;;
46491;SDS011;32206;51.446;6.792;2022-07-23T11:55:05;3.97;;;1.70;;
46491;SDS011;32206;51.446;6.792;2022-07-23T11:57:40;4.50;;;1.70;;
46491;SDS011;32206;51.446;6.792;2022-07-23T12:02:40;7.65;;;2.10;;
46491;SDS011;32206;51.446;6.792;2022-07-23T12:05:08;4.15;;;2.25;;
46491;SDS011;32206;51.446;6.792;2022-07-23T12:07:41;4.45;;;2.00;;
46491;SDS011;32206;51.446;6.792;2022-07-23T12:12:49;3.33;;;1.77;;
46491;SDS011;32206;51.446;6.792;2022-07-23T12:15:23;6.97;;;1.90;;
46491;SDS011;32206;51.446;6.792;2022-07-23T12:17:55;4.25;;;1.73;;
46491;SDS011;32206;51.446;6.792;2022-07-23T12:20:23;6.68;;;1.55;;
46491;SDS011;32206;51.446;6.792;2022-07-23T12:22:51;4.45;;;1.42;;
46491;SDS011;32206;51.446;6.792;2022-07-23T12:25:21;11.93;;;6.57;;
46491;SDS011;32206;51.446;6.792;2022-07-23T12:30:39;2.15;;;1.27;;
46491;SDS011;32206;51.446;6.792;2022-07-23T12:33:08;1.65;;;1.10;;
46491;SDS011;32206;51.446;6.792;2022-07-23T12:38:06;5.07;;;1.55;;
46491;SDS011;32206;51.446;6.792;2022-07-23T12:48:37;5.25;;;1.30;;
46491;SDS011;32206;51.446;6.792;2022-07-23T12:51:16;2.80;;;1.50;;
46491;SDS011;32206;51.446;6.792;2022-07-23T12:56:21;3.53;;;1.50;;
46491;SDS011;32206;51.446;6.792;2022-07-23T12:58:58;4.53;;;1.30;;
46491;SDS011;32206;51.446;6.792;2022-07-23T13:01:32;2.47;;;1.20;;
46491;SDS011;32206;51.446;6.792;2022-07-23T13:04:09;3.92;;;1.25;;
46491;SDS011;32206;51.446;6.792;2022-07-23T13:06:38;3.35;;;1.38;;
46491;SDS011;32206;51.446;6.792;2022-07-23T13:09:15;2.47;;;1.33;;
46491;SDS011;32206;51.446;6.792;2022-07-23T13:11:43;4.53;;;1.10;;
46491;SDS011;32206;51.446;6.792;2022-07-23T13:14:10;2.47;;;1.25;;
46491;SDS011;32206;51.446;6.792;2022-07-23T13:16:37;3.78;;;1.52;;
46491;SDS011;32206;51.446;6.792;2022-07-23T13:19:03;1.80;;;1.13;;
46491;SDS011;32206;51.446;6.792;2022-07-23T13:21:29;2.53;;;1.38;;
46491;SDS011;32206;51.446;6.792;2022-07-23T13:23:56;4.38;;;1.40;;
46491;SDS011;32206;51.446;6.792;2022-07-23T13:26:22;4.03;;;1.20;;
46491;SDS011;32206;51.446;6.792;2022-07-23T13:28:47;4.78;;;1.65;;
46491;SDS011;32206;51.446;6.792;2022-07-23T13:31:13;1.48;;;1.23;;
46491;SDS011;32206;51.446;6.792;2022-07-23T13:33:39;5.25;;;1.63;;
46491;SDS011;32206;51.446;6.792;2022-07-23T13:36:05;3.83;;;1.13;;
46491;SDS011;32206;51.446;6.792;2022-07-23T13:38:31;4.30;;;1.60;;
46491;SDS011;32206;51.446;6.792;2022-07-23T13:40:57;2.88;;;1.88;;
46491;SDS011;32206;51.446;6.792;2022-07-23T13:43:23;4.90;;;1.45;;
46491;SDS011;32206;51.446;6.792;2022-07-23T13:45:51;3.78;;;1.17;;
46491;SDS011;32206;51.446;6.792;2022-07-23T13:48:18;3.28;;;1.30;;
46491;SDS011;32206;51.446;6.792;2022-07-23T13:50:45;1.10;;;1.00;;
46491;SDS011;32206;51.446;6.792;2022-07-23T13:53:14;2.70;;;1.38;;
46491;SDS011;32206;51.446;6.792;2022-07-23T13:55:44;2.20;;;1.58;;
46491;SDS011;32206;51.446;6.792;2022-07-23T13:58:10;3.63;;;1.10;;
46491;SDS011;32206;51.446;6.792;2022-07-23T14:00:37;2.72;;;1.67;;
46491;SDS011;32206;51.446;6.792;2022-07-23T14:03:04;1.85;;;1.00;;
46491;SDS011;32206;51.446;6.792;2022-07-23T14:05:31;2.72;;;1.65;;
46491;SDS011;32206;51.446;6.792;2022-07-23T14:07:56;3.10;;;1.15;;
46491;SDS011;32206;51.446;6.792;2022-07-23T14:10:22;14.50;;;2.47;;
46491;SDS011;32206;51.446;6.792;2022-07-23T14:12:48;16.20;;;2.03;;
46491;SDS011;32206;51.446;6.792;2022-07-23T14:15:16;4.35;;;1.40;;
46491;SDS011;32206;51.446;6.792;2022-07-23T14:17:42;36.35;;;3.45;;
46491;SDS011;32206;51.446;6.792;2022-07-23T14:20:09;6.88;;;2.03;;
46491;SDS011;32206;51.446;6.792;2022-07-23T14:22:36;5.10;;;1.70;;
46491;SDS011;32206;51.446;6.792;2022-07-23T14:25:03;2.10;;;1.42;;
46491;SDS011;32206;51.446;6.792;2022-07-23T14:27:30;3.30;;;1.80;;
46491;SDS011;32206;51.446;6.792;2022-07-23T14:29:56;14.02;;;1.98;;
46491;SDS011;32206;51.446;6.792;2022-07-23T14:32:22;4.18;;;1.85;;
46491;SDS011;32206;51.446;6.792;2022-07-23T14:34:48;2.75;;;1.75;;
46491;SDS011;32206;51.446;6.792;2022-07-23T14:37:14;5.75;;;1.90;;
46491;SDS011;32206;51.446;6.792;2022-07-23T14:39:40;4.97;;;1.63;;
46491;SDS011;32206;51.446;6.792;2022-07-23T14:42:07;4.35;;;2.38;;
46491;SDS011;32206;51.446;6.792;2022-07-23T14:44:33;4.95;;;1.90;;
46491;SDS011;32206;51.446;6.792;2022-07-23T14:47:00;5.00;;;1.90;;
46491;SDS011;32206;51.446;6.792;2022-07-23T14:49:29;10.80;;;1.73;;
46491;SDS011;32206;51.446;6.792;2022-07-23T15:19:02;6.53;;;2.30;;
46491;SDS011;32206;51.446;6.792;2022-07-23T15:21:28;6.72;;;2.00;;
46491;SDS011;32206;51.446;6.792;2022-07-23T15:23:55;6.63;;;2.58;;
46491;SDS011;32206;51.446;6.792;2022-07-23T15:26:23;2.33;;;1.67;;
46491;SDS011;32206;51.446;6.792;2022-07-23T15:28:53;1.63;;;1.30;;
46491;SDS011;32206;51.446;6.792;2022-07-23T15:31:19;4.80;;;1.80;;
46491;SDS011;32206;51.446;6.792;2022-07-23T15:33:44;2.13;;;1.15;;
46491;SDS011;32206;51.446;6.792;2022-07-23T15:36:10;7.20;;;1.60;;
46491;SDS011;32206;51.446;6.792;2022-07-23T15:38:36;3.20;;;1.23;;
46491;SDS011;32206;51.446;6.792;2022-07-23T15:41:02;3.35;;;1.48;;
46491;SDS011;32206;51.446;6.792;2022-07-23T15:43:28;2.45;;;1.77;;
46491;SDS011;32206;51.446;6.792;2022-07-23T15:45:54;2.05;;;1.33;;
46491;SDS011;32206;51.446;6.792;2022-07-23T15:48:20;3.22;;;1.48;;
46491;SDS011;32206;51.446;6.792;2022-07-23T15:50:46;3.58;;;1.70;;
46491;SDS011;32206;51.446;6.792;2022-07-23T15:53:12;5.35;;;4.20;;
46491;SDS011;32206;51.446;6.792;2022-07-23T15:55:38;6.72;;;2.83;;
46491;SDS011;32206;51.446;6.792;2022-07-23T15:58:05;2.00;;;1.52;;
46491;SDS011;32206;51.446;6.792;2022-07-23T16:00:30;4.53;;;2.13;;
46491;SDS011;32206;51.446;6.792;2022-07-23T16:02:56;4.03;;;1.80;;
46491;SDS011;32206;51.446;6.792;2022-07-23T16:05:22;2.47;;;1.55;;
46491;SDS011;32206;51.446;6.792;2022-07-23T16:07:47;8.00;;;1.83;;
46491;SDS011;32206;51.446;6.792;2022-07-23T16:10:13;5.97;;;1.73;;
46491;SDS011;32206;51.446;6.792;2022-07-23T16:12:39;2.22;;;1.80;;
46491;SDS011;32206;51.446;6.792;2022-07-23T16:15:04;3.20;;;1.83;;
46491;SDS011;32206;51.446;6.792;2022-07-23T16:17:30;6.35;;;1.95;;
46491;SDS011;32206;51.446;6.792;2022-07-23T16:19:56;3.15;;;1.65;;
46491;SDS011;32206;51.446;6.792;2022-07-23T16:22:22;3.67;;;1.60;;